sensor_id;sensor_type;location;lat;lon;timestamp;temperature;humidity
14061;DHT22;7105;43.616;1.434;2023-07-20T00:01:18;21.40;99.90
14061;DHT22;7105;43.616;1.434;2023-07-20T00:03:43;21.30;99.90
14061;DHT22;7105;43.616;1.434;2023-07-20T00:06:09;21.20;99.90
14061;DHT22;7105;43.616;1.434;2023-07-20T00:08:35;21.10;99.90
14061;DHT22;7105;43.616;1.434;2023-07-20T00:11:00;21.20;99.90
14061;DHT22;7105;43.616;1.434;2023-07-20T00:13:26;21.40;99.90
14061;DHT22;7105;43.616;1.434;2023-07-20T00:15:52;21.30;99.90
14061;DHT22;7105;43.616;1.434;2023-07-20T00:18:18;21.20;99.90
14061;DHT22;7105;43.616;1.434;2023-07-20T00:20:47;21.20;99.90
14061;DHT22;7105;43.616;1.434;2023-07-20T00:23:12;21.40;99.90
14061;DHT22;7105;43.616;1.434;2023-07-20T00:25:38;21.40;99.90
14061;DHT22;7105;43.616;1.434;2023-07-20T00:28:04;21.40;99.90
14061;DHT22;7105;43.616;1.434;2023-07-20T00:30:30;21.30;99.90
14061;DHT22;7105;43.616;1.434;2023-07-20T00:32:55;21.30;99.90
14061;DHT22;7105;43.616;1.434;2023-07-20T00:35:21;21.30;99.90
14061;DHT22;7105;43.616;1.434;2023-07-20T00:37:47;21.30;99.90
14061;DHT22;7105;43.616;1.434;2023-07-20T00:40:12;21.30;99.90
14061;DHT22;7105;43.616;1.434;2023-07-20T00:42:38;21.30;99.90
14061;DHT22;7105;43.616;1.434;2023-07-20T00:45:05;21.30;99.90
14061;DHT22;7105;43.616;1.434;2023-07-20T00:47:31;21.20;99.90
14061;DHT22;7105;43.616;1.434;2023-07-20T00:49:58;21.00;99.90
14061;DHT22;7105;43.616;1.434;2023-07-20T00:52:24;21.00;99.90
14061;DHT22;7105;43.616;1.434;2023-07-20T00:54:51;21.00;99.90
14061;DHT22;7105;43.616;1.434;2023-07-20T00:57:17;21.20;99.90
14061;DHT22;7105;43.616;1.434;2023-07-20T00:59:44;21.20;99.90
14061;DHT22;7105;43.616;1.434;2023-07-20T01:02:09;21.00;99.90
14061;DHT22;7105;43.616;1.434;2023-07-20T01:04:35;21.00;99.90
14061;DHT22;7105;43.616;1.434;2023-07-20T01:09:48;20.90;99.90
14061;DHT22;7105;43.616;1.434;2023-07-20T01:12:34;21.10;99.90
14061;DHT22;7105;43.616;1.434;2023-07-20T01:15:00;21.00;99.90
14061;DHT22;7105;43.616;1.434;2023-07-20T01:17:26;21.00;99.90
14061;DHT22;7105;43.616;1.434;2023-07-20T01:19:52;20.90;99.90
14061;DHT22;7105;43.616;1.434;2023-07-20T01:22:41;20.80;99.90
14061;DHT22;7105;43.616;1.434;2023-07-20T01:25:21;20.80;99.90
14061;DHT22;7105;43.616;1.434;2023-07-20T01:28:25;21.00;99.90
14061;DHT22;7105;43.616;1.434;2023-07-20T01:31:20;20.90;99.90
14061;DHT22;7105;43.616;1.434;2023-07-20T01:33:48;20.80;99.90
14061;DHT22;7105;43.616;1.434;2023-07-20T01:36:16;20.60;99.90
14061;DHT22;7105;43.616;1.434;2023-07-20T01:38:43;20.70;99.90
14061;DHT22;7105;43.616;1.434;2023-07-20T01:41:10;20.70;99.90
14061;DHT22;7105;43.616;1.434;2023-07-20T01:43:36;20.70;99.90
14061;DHT22;7105;43.616;1.434;2023-07-20T01:46:02;20.70;99.90
14061;DHT22;7105;43.616;1.434;2023-07-20T01:48:28;20.70;99.90
14061;DHT22;7105;43.616;1.434;2023-07-20T01:50:54;20.70;99.90
14061;DHT22;7105;43.616;1.434;2023-07-20T01:53:20;20.80;99.90
14061;DHT22;7105;43.616;1.434;2023-07-20T01:55:46;20.70;99.90
14061;DHT22;7105;43.616;1.434;2023-07-20T01:58:12;20.50;99.90
14061;DHT22;7105;43.616;1.434;2023-07-20T02:00:37;20.50;99.90
14061;DHT22;7105;43.616;1.434;2023-07-20T02:03:04;20.60;99.90
14061;DHT22;7105;43.616;1.434;2023-07-20T02:05:29;20.60;99.90
14061;DHT22;7105;43.616;1.434;2023-07-20T02:07:55;20.60;99.90
14061;DHT22;7105;43.616;1.434;2023-07-20T02:10:21;20.40;99.90
14061;DHT22;7105;43.616;1.434;2023-07-20T02:12:46;20.50;99.90
14061;DHT22;7105;43.616;1.434;2023-07-20T02:15:14;20.30;99.90
14061;DHT22;7105;43.616;1.434;2023-07-20T02:17:42;20.20;99.90
14061;DHT22;7105;43.616;1.434;2023-07-20T02:20:08;20.20;99.90
14061;DHT22;7105;43.616;1.434;2023-07-20T02:22:36;20.20;99.90
14061;DHT22;7105;43.616;1.434;2023-07-20T02:25:05;20.30;99.90
14061;DHT22;7105;43.616;1.434;2023-07-20T02:27:33;20.30;99.90
14061;DHT22;7105;43.616;1.434;2023-07-20T02:29:59;20.30;99.90
14061;DHT22;7105;43.616;1.434;2023-07-20T02:32:25;20.30;99.90
14061;DHT22;7105;43.616;1.434;2023-07-20T02:34:50;20.30;99.90
14061;DHT22;7105;43.616;1.434;2023-07-20T02:37:17;20.30;99.90
14061;DHT22;7105;43.616;1.434;2023-07-20T02:39:42;20.40;99.90
14061;DHT22;7105;43.616;1.434;2023-07-20T02:42:08;20.40;99.90
14061;DHT22;7105;43.616;1.434;2023-07-20T02:44:34;20.50;99.90
14061;DHT22;7105;43.616;1.434;2023-07-20T02:46:59;20.40;99.90
14061;DHT22;7105;43.616;1.434;2023-07-20T02:49:25;20.20;99.90
14061;DHT22;7105;43.616;1.434;2023-07-20T02:51:51;20.20;99.90
14061;DHT22;7105;43.616;1.434;2023-07-20T02:54:16;20.20;99.90
14061;DHT22;7105;43.616;1.434;2023-07-20T02:56:42;20.20;99.90
14061;DHT22;7105;43.616;1.434;2023-07-20T02:59:08;20.20;99.90
14061;DHT22;7105;43.616;1.434;2023-07-20T03:01:36;20.20;99.90
14061;DHT22;7105;43.616;1.434;2023-07-20T03:04:02;20.10;99.90
14061;DHT22;7105;43.616;1.434;2023-07-20T03:06:27;20.10;99.90
14061;DHT22;7105;43.616;1.434;2023-07-20T03:08:53;20.10;99.90
14061;DHT22;7105;43.616;1.434;2023-07-20T03:11:19;20.10;99.90
14061;DHT22;7105;43.616;1.434;2023-07-20T03:13:46;19.90;99.90
14061;DHT22;7105;43.616;1.434;2023-07-20T03:16:18;20.00;99.90
14061;DHT22;7105;43.616;1.434;2023-07-20T03:18:44;20.10;99.90
14061;DHT22;7105;43.616;1.434;2023-07-20T03:21:10;20.10;99.90
14061;DHT22;7105;43.616;1.434;2023-07-20T03:23:40;20.00;99.90
14061;DHT22;7105;43.616;1.434;2023-07-20T03:26:06;20.10;99.90
14061;DHT22;7105;43.616;1.434;2023-07-20T03:28:34;20.10;99.90
14061;DHT22;7105;43.616;1.434;2023-07-20T03:31:00;19.80;99.90
14061;DHT22;7105;43.616;1.434;2023-07-20T03:33:28;19.90;99.90
14061;DHT22;7105;43.616;1.434;2023-07-20T03:35:54;19.90;99.90
14061;DHT22;7105;43.616;1.434;2023-07-20T03:38:21;19.80;99.90
14061;DHT22;7105;43.616;1.434;2023-07-20T03:41:00;19.90;99.90
14061;DHT22;7105;43.616;1.434;2023-07-20T03:43:27;19.70;99.90
14061;DHT22;7105;43.616;1.434;2023-07-20T03:45:53;19.80;99.90
14061;DHT22;7105;43.616;1.434;2023-07-20T03:48:21;19.70;99.90
14061;DHT22;7105;43.616;1.434;2023-07-20T03:50:48;19.90;99.90
14061;DHT22;7105;43.616;1.434;2023-07-20T03:53:15;19.80;99.90
14061;DHT22;7105;43.616;1.434;2023-07-20T03:55:51;19.60;99.90
14061;DHT22;7105;43.616;1.434;2023-07-20T03:58:18;19.70;99.90
14061;DHT22;7105;43.616;1.434;2023-07-20T04:00:48;19.70;99.90
14061;DHT22;7105;43.616;1.434;2023-07-20T04:03:15;19.60;99.90
14061;DHT22;7105;43.616;1.434;2023-07-20T04:05:42;19.70;99.90
14061;DHT22;7105;43.616;1.434;2023-07-20T04:08:07;19.60;99.90
14061;DHT22;7105;43.616;1.434;2023-07-20T04:10:33;19.70;99.90
14061;DHT22;7105;43.616;1.434;2023-07-20T04:12:59;19.60;99.90
14061;DHT22;7105;43.616;1.434;2023-07-20T04:15:25;19.70;99.90
14061;DHT22;7105;43.616;1.434;2023-07-20T04:17:51;19.50;99.90
14061;DHT22;7105;43.616;1.434;2023-07-20T04:20:16;19.60;99.90
14061;DHT22;7105;43.616;1.434;2023-07-20T04:22:43;19.30;99.90
14061;DHT22;7105;43.616;1.434;2023-07-20T04:25:09;19.30;99.90
14061;DHT22;7105;43.616;1.434;2023-07-20T04:27:36;19.50;99.90
14061;DHT22;7105;43.616;1.434;2023-07-20T04:30:02;19.50;99.90
14061;DHT22;7105;43.616;1.434;2023-07-20T04:32:29;19.40;99.90
14061;DHT22;7105;43.616;1.434;2023-07-20T04:34:54;19.40;99.90
14061;DHT22;7105;43.616;1.434;2023-07-20T04:37:20;19.80;99.90
14061;DHT22;7105;43.616;1.434;2023-07-20T04:39:46;19.60;99.90
14061;DHT22;7105;43.616;1.434;2023-07-20T04:42:12;19.50;99.90
14061;DHT22;7105;43.616;1.434;2023-07-20T04:44:38;19.70;99.90
14061;DHT22;7105;43.616;1.434;2023-07-20T04:47:04;19.60;99.90
14061;DHT22;7105;43.616;1.434;2023-07-20T04:49:29;19.60;99.90
14061;DHT22;7105;43.616;1.434;2023-07-20T04:51:55;19.90;99.90
14061;DHT22;7105;43.616;1.434;2023-07-20T04:54:21;20.10;99.90
14061;DHT22;7105;43.616;1.434;2023-07-20T04:56:47;20.10;99.90
14061;DHT22;7105;43.616;1.434;2023-07-20T04:59:12;20.50;99.90
14061;DHT22;7105;43.616;1.434;2023-07-20T05:01:38;20.80;99.90
14061;DHT22;7105;43.616;1.434;2023-07-20T05:04:04;21.10;99.90
14061;DHT22;7105;43.616;1.434;2023-07-20T05:06:30;21.10;99.90
14061;DHT22;7105;43.616;1.434;2023-07-20T05:08:56;21.30;99.90
14061;DHT22;7105;43.616;1.434;2023-07-20T05:11:21;21.40;99.90
14061;DHT22;7105;43.616;1.434;2023-07-20T05:13:47;21.90;99.90
14061;DHT22;7105;43.616;1.434;2023-07-20T05:16:13;22.20;99.90
14061;DHT22;7105;43.616;1.434;2023-07-20T05:18:38;22.20;99.90
14061;DHT22;7105;43.616;1.434;2023-07-20T05:21:05;22.20;99.90
14061;DHT22;7105;43.616;1.434;2023-07-20T05:23:31;23.00;99.90
14061;DHT22;7105;43.616;1.434;2023-07-20T05:25:58;23.70;99.90
14061;DHT22;7105;43.616;1.434;2023-07-20T05:28:25;23.50;99.90
14061;DHT22;7105;43.616;1.434;2023-07-20T05:30:51;24.60;99.90
14061;DHT22;7105;43.616;1.434;2023-07-20T05:33:18;25.20;99.90
14061;DHT22;7105;43.616;1.434;2023-07-20T05:35:44;25.60;99.90
14061;DHT22;7105;43.616;1.434;2023-07-20T05:38:10;26.10;99.90
14061;DHT22;7105;43.616;1.434;2023-07-20T05:40:41;25.10;99.90
14061;DHT22;7105;43.616;1.434;2023-07-20T05:43:08;25.80;99.90
14061;DHT22;7105;43.616;1.434;2023-07-20T05:45:34;25.40;99.90
14061;DHT22;7105;43.616;1.434;2023-07-20T05:48:00;24.80;99.90
14061;DHT22;7105;43.616;1.434;2023-07-20T05:50:25;26.30;99.90
14061;DHT22;7105;43.616;1.434;2023-07-20T05:52:54;26.80;99.90
14061;DHT22;7105;43.616;1.434;2023-07-20T05:55:20;27.50;99.90
14061;DHT22;7105;43.616;1.434;2023-07-20T05:57:46;25.50;99.90
14061;DHT22;7105;43.616;1.434;2023-07-20T06:00:13;26.80;99.90
14061;DHT22;7105;43.616;1.434;2023-07-20T06:02:39;26.70;99.90
14061;DHT22;7105;43.616;1.434;2023-07-20T06:05:07;26.00;99.90
14061;DHT22;7105;43.616;1.434;2023-07-20T06:07:39;25.50;99.90
14061;DHT22;7105;43.616;1.434;2023-07-20T06:10:05;26.30;99.90
14061;DHT22;7105;43.616;1.434;2023-07-20T06:12:31;27.30;99.90
14061;DHT22;7105;43.616;1.434;2023-07-20T06:15:01;27.20;99.90
14061;DHT22;7105;43.616;1.434;2023-07-20T06:17:27;27.50;99.90
14061;DHT22;7105;43.616;1.434;2023-07-20T06:19:53;28.40;99.90
14061;DHT22;7105;43.616;1.434;2023-07-20T06:22:18;28.90;99.90
14061;DHT22;7105;43.616;1.434;2023-07-20T06:24:44;28.40;99.90
14061;DHT22;7105;43.616;1.434;2023-07-20T06:27:10;29.00;99.90
14061;DHT22;7105;43.616;1.434;2023-07-20T06:29:35;28.10;99.90
14061;DHT22;7105;43.616;1.434;2023-07-20T06:32:01;28.50;99.90
14061;DHT22;7105;43.616;1.434;2023-07-20T06:34:27;28.30;99.90
14061;DHT22;7105;43.616;1.434;2023-07-20T06:36:52;28.50;99.90
14061;DHT22;7105;43.616;1.434;2023-07-20T06:39:18;28.20;99.90
14061;DHT22;7105;43.616;1.434;2023-07-20T06:41:44;28.00;99.90
14061;DHT22;7105;43.616;1.434;2023-07-20T06:44:09;28.20;99.90
14061;DHT22;7105;43.616;1.434;2023-07-20T06:46:35;28.10;99.90
14061;DHT22;7105;43.616;1.434;2023-07-20T06:49:01;30.60;99.90
14061;DHT22;7105;43.616;1.434;2023-07-20T06:51:26;31.70;99.90
14061;DHT22;7105;43.616;1.434;2023-07-20T06:53:52;30.10;99.90
14061;DHT22;7105;43.616;1.434;2023-07-20T06:56:21;29.50;99.90
14061;DHT22;7105;43.616;1.434;2023-07-20T06:58:46;29.80;99.90
14061;DHT22;7105;43.616;1.434;2023-07-20T07:01:13;29.70;99.90
14061;DHT22;7105;43.616;1.434;2023-07-20T07:03:39;29.00;99.90
14061;DHT22;7105;43.616;1.434;2023-07-20T07:06:04;30.90;99.90
14061;DHT22;7105;43.616;1.434;2023-07-20T07:08:30;31.00;99.90
14061;DHT22;7105;43.616;1.434;2023-07-20T07:10:56;32.30;99.90
14061;DHT22;7105;43.616;1.434;2023-07-20T07:13:21;31.20;99.90
14061;DHT22;7105;43.616;1.434;2023-07-20T07:15:47;31.70;99.90
14061;DHT22;7105;43.616;1.434;2023-07-20T07:18:13;31.30;99.90
14061;DHT22;7105;43.616;1.434;2023-07-20T07:20:38;32.70;99.90
14061;DHT22;7105;43.616;1.434;2023-07-20T07:23:04;33.30;99.90
14061;DHT22;7105;43.616;1.434;2023-07-20T07:25:29;33.60;99.90
14061;DHT22;7105;43.616;1.434;2023-07-20T07:27:56;32.90;99.90
14061;DHT22;7105;43.616;1.434;2023-07-20T07:30:22;32.70;99.90
14061;DHT22;7105;43.616;1.434;2023-07-20T07:32:48;31.90;99.90
14061;DHT22;7105;43.616;1.434;2023-07-20T07:35:13;32.20;99.90
14061;DHT22;7105;43.616;1.434;2023-07-20T07:37:39;29.80;99.90
14061;DHT22;7105;43.616;1.434;2023-07-20T07:40:05;32.00;99.90
14061;DHT22;7105;43.616;1.434;2023-07-20T07:42:31;32.00;99.90
14061;DHT22;7105;43.616;1.434;2023-07-20T07:44:57;31.20;99.90
14061;DHT22;7105;43.616;1.434;2023-07-20T07:47:23;31.40;99.90
14061;DHT22;7105;43.616;1.434;2023-07-20T07:49:48;32.50;99.90
14061;DHT22;7105;43.616;1.434;2023-07-20T07:52:15;34.90;99.90
14061;DHT22;7105;43.616;1.434;2023-07-20T07:54:40;33.50;99.90
14061;DHT22;7105;43.616;1.434;2023-07-20T07:57:06;34.60;99.90
14061;DHT22;7105;43.616;1.434;2023-07-20T07:59:32;35.60;99.90
14061;DHT22;7105;43.616;1.434;2023-07-20T08:02:03;34.60;99.90
14061;DHT22;7105;43.616;1.434;2023-07-20T08:04:30;33.00;99.90
14061;DHT22;7105;43.616;1.434;2023-07-20T08:06:55;31.50;99.90
14061;DHT22;7105;43.616;1.434;2023-07-20T08:09:21;33.30;99.90
14061;DHT22;7105;43.616;1.434;2023-07-20T08:11:47;36.70;99.90
14061;DHT22;7105;43.616;1.434;2023-07-20T08:14:13;36.30;99.90
14061;DHT22;7105;43.616;1.434;2023-07-20T08:16:39;35.60;99.90
14061;DHT22;7105;43.616;1.434;2023-07-20T08:19:05;35.90;99.90
14061;DHT22;7105;43.616;1.434;2023-07-20T08:21:30;35.80;99.90
14061;DHT22;7105;43.616;1.434;2023-07-20T08:23:56;35.80;99.90
14061;DHT22;7105;43.616;1.434;2023-07-20T08:26:23;33.20;99.90
14061;DHT22;7105;43.616;1.434;2023-07-20T08:28:49;32.70;99.90
14061;DHT22;7105;43.616;1.434;2023-07-20T08:31:15;33.50;99.90
14061;DHT22;7105;43.616;1.434;2023-07-20T08:33:40;34.60;99.90
14061;DHT22;7105;43.616;1.434;2023-07-20T08:36:06;35.60;99.90
14061;DHT22;7105;43.616;1.434;2023-07-20T08:38:33;35.90;99.90
14061;DHT22;7105;43.616;1.434;2023-07-20T08:40:58;35.10;99.90
14061;DHT22;7105;43.616;1.434;2023-07-20T08:43:25;34.80;99.90
14061;DHT22;7105;43.616;1.434;2023-07-20T08:45:55;35.20;99.90
14061;DHT22;7105;43.616;1.434;2023-07-20T08:48:27;35.80;99.90
14061;DHT22;7105;43.616;1.434;2023-07-20T08:50:53;38.10;99.90
14061;DHT22;7105;43.616;1.434;2023-07-20T08:53:20;37.60;99.90
14061;DHT22;7105;43.616;1.434;2023-07-20T08:55:49;36.40;99.90
14061;DHT22;7105;43.616;1.434;2023-07-20T08:58:15;35.50;99.90
14061;DHT22;7105;43.616;1.434;2023-07-20T09:00:42;35.60;99.90
14061;DHT22;7105;43.616;1.434;2023-07-20T09:03:08;36.60;99.90
14061;DHT22;7105;43.616;1.434;2023-07-20T09:05:35;34.80;99.90
14061;DHT22;7105;43.616;1.434;2023-07-20T09:08:01;33.90;99.90
14061;DHT22;7105;43.616;1.434;2023-07-20T09:10:30;30.90;99.90
14061;DHT22;7105;43.616;1.434;2023-07-20T09:12:58;28.90;99.90
14061;DHT22;7105;43.616;1.434;2023-07-20T09:15:25;29.30;99.90
14061;DHT22;7105;43.616;1.434;2023-07-20T09:17:51;29.40;99.90
14061;DHT22;7105;43.616;1.434;2023-07-20T09:20:20;30.30;99.90
14061;DHT22;7105;43.616;1.434;2023-07-20T09:22:46;29.50;99.90
14061;DHT22;7105;43.616;1.434;2023-07-20T09:25:12;28.60;99.90
14061;DHT22;7105;43.616;1.434;2023-07-20T09:27:47;28.10;99.90
14061;DHT22;7105;43.616;1.434;2023-07-20T09:30:14;28.70;99.90
14061;DHT22;7105;43.616;1.434;2023-07-20T09:32:42;28.20;99.90
14061;DHT22;7105;43.616;1.434;2023-07-20T09:35:15;28.00;99.90
14061;DHT22;7105;43.616;1.434;2023-07-20T09:37:57;27.60;99.90
14061;DHT22;7105;43.616;1.434;2023-07-20T09:40:24;28.10;99.90
14061;DHT22;7105;43.616;1.434;2023-07-20T09:42:52;28.60;99.90
14061;DHT22;7105;43.616;1.434;2023-07-20T09:45:18;28.40;99.90
14061;DHT22;7105;43.616;1.434;2023-07-20T09:47:44;28.20;99.90
14061;DHT22;7105;43.616;1.434;2023-07-20T09:50:09;27.80;99.90
14061;DHT22;7105;43.616;1.434;2023-07-20T09:52:38;27.70;99.90
14061;DHT22;7105;43.616;1.434;2023-07-20T09:55:10;27.20;99.90
14061;DHT22;7105;43.616;1.434;2023-07-20T09:57:37;27.50;99.90
14061;DHT22;7105;43.616;1.434;2023-07-20T10:00:07;28.50;99.90
14061;DHT22;7105;43.616;1.434;2023-07-20T10:02:42;28.00;99.90
14061;DHT22;7105;43.616;1.434;2023-07-20T10:05:11;27.50;99.90
14061;DHT22;7105;43.616;1.434;2023-07-20T10:07:44;27.10;99.90
14061;DHT22;7105;43.616;1.434;2023-07-20T10:10:11;26.90;99.90
14061;DHT22;7105;43.616;1.434;2023-07-20T10:12:39;27.20;99.90
14061;DHT22;7105;43.616;1.434;2023-07-20T10:15:59;27.20;99.90
14061;DHT22;7105;43.616;1.434;2023-07-20T10:18:30;27.90;99.90
14061;DHT22;7105;43.616;1.434;2023-07-20T10:20:59;28.10;99.90
14061;DHT22;7105;43.616;1.434;2023-07-20T10:23:28;29.00;99.90
14061;DHT22;7105;43.616;1.434;2023-07-20T10:25:54;28.70;99.90
14061;DHT22;7105;43.616;1.434;2023-07-20T10:28:21;28.20;99.90
14061;DHT22;7105;43.616;1.434;2023-07-20T10:30:49;27.50;99.90
14061;DHT22;7105;43.616;1.434;2023-07-20T10:33:17;27.20;99.90
14061;DHT22;7105;43.616;1.434;2023-07-20T10:36:03;27.70;99.90
14061;DHT22;7105;43.616;1.434;2023-07-20T10:38:54;28.30;99.90
14061;DHT22;7105;43.616;1.434;2023-07-20T10:41:37;28.30;99.90
14061;DHT22;7105;43.616;1.434;2023-07-20T10:44:07;27.80;99.90
14061;DHT22;7105;43.616;1.434;2023-07-20T10:49:08;26.80;99.90
14061;DHT22;7105;43.616;1.434;2023-07-20T10:51:42;27.50;99.90
14061;DHT22;7105;43.616;1.434;2023-07-20T10:54:54;27.20;99.90
14061;DHT22;7105;43.616;1.434;2023-07-20T10:59:47;27.40;99.90
14061;DHT22;7105;43.616;1.434;2023-07-20T11:02:12;27.70;99.90
14061;DHT22;7105;43.616;1.434;2023-07-20T11:04:43;27.80;99.90
14061;DHT22;7105;43.616;1.434;2023-07-20T11:07:09;28.10;99.90
14061;DHT22;7105;43.616;1.434;2023-07-20T11:09:36;27.80;99.90
14061;DHT22;7105;43.616;1.434;2023-07-20T11:12:16;27.90;99.90
14061;DHT22;7105;43.616;1.434;2023-07-20T11:14:53;27.60;99.90
14061;DHT22;7105;43.616;1.434;2023-07-20T11:17:19;27.30;99.90
14061;DHT22;7105;43.616;1.434;2023-07-20T11:19:55;26.90;99.90
14061;DHT22;7105;43.616;1.434;2023-07-20T11:22:22;27.10;99.90
14061;DHT22;7105;43.616;1.434;2023-07-20T11:24:48;27.30;99.90
14061;DHT22;7105;43.616;1.434;2023-07-20T11:27:16;27.70;99.90
14061;DHT22;7105;43.616;1.434;2023-07-20T11:29:45;27.80;99.90
14061;DHT22;7105;43.616;1.434;2023-07-20T11:32:11;27.90;99.90
14061;DHT22;7105;43.616;1.434;2023-07-20T11:34:36;27.90;99.90
14061;DHT22;7105;43.616;1.434;2023-07-20T11:37:02;28.00;99.90
14061;DHT22;7105;43.616;1.434;2023-07-20T11:39:29;28.10;99.90
14061;DHT22;7105;43.616;1.434;2023-07-20T11:41:56;27.80;99.90
14061;DHT22;7105;43.616;1.434;2023-07-20T11:44:24;28.10;99.90
14061;DHT22;7105;43.616;1.434;2023-07-20T11:47:10;27.80;99.90
14061;DHT22;7105;43.616;1.434;2023-07-20T11:52:07;28.20;99.90
14061;DHT22;7105;43.616;1.434;2023-07-20T11:54:43;28.10;99.90
14061;DHT22;7105;43.616;1.434;2023-07-20T11:57:19;28.00;99.90
14061;DHT22;7105;43.616;1.434;2023-07-20T12:00:00;27.80;99.90
14061;DHT22;7105;43.616;1.434;2023-07-20T12:02:27;28.10;99.90
14061;DHT22;7105;43.616;1.434;2023-07-20T12:04:54;28.00;99.90
14061;DHT22;7105;43.616;1.434;2023-07-20T12:07:21;28.00;99.90
14061;DHT22;7105;43.616;1.434;2023-07-20T12:10:06;27.80;99.90
14061;DHT22;7105;43.616;1.434;2023-07-20T12:12:34;28.10;99.90
14061;DHT22;7105;43.616;1.434;2023-07-20T12:17:44;28.00;99.90
14061;DHT22;7105;43.616;1.434;2023-07-20T12:20:11;28.00;99.90
14061;DHT22;7105;43.616;1.434;2023-07-20T12:22:41;27.80;99.90
14061;DHT22;7105;43.616;1.434;2023-07-20T12:25:08;28.00;99.90
14061;DHT22;7105;43.616;1.434;2023-07-20T12:27:37;28.00;99.90
14061;DHT22;7105;43.616;1.434;2023-07-20T12:30:05;27.60;99.90
14061;DHT22;7105;43.616;1.434;2023-07-20T12:32:33;27.60;99.90
14061;DHT22;7105;43.616;1.434;2023-07-20T12:34:59;27.50;99.90
14061;DHT22;7105;43.616;1.434;2023-07-20T12:37:26;27.60;99.90
14061;DHT22;7105;43.616;1.434;2023-07-20T12:39:52;27.80;99.90
14061;DHT22;7105;43.616;1.434;2023-07-20T12:42:18;28.30;99.90
14061;DHT22;7105;43.616;1.434;2023-07-20T12:44:43;28.10;99.90
14061;DHT22;7105;43.616;1.434;2023-07-20T12:47:09;27.80;99.90
14061;DHT22;7105;43.616;1.434;2023-07-20T12:49:35;27.70;99.90
14061;DHT22;7105;43.616;1.434;2023-07-20T12:52:00;27.70;99.90
14061;DHT22;7105;43.616;1.434;2023-07-20T12:54:26;27.90;99.90
14061;DHT22;7105;43.616;1.434;2023-07-20T12:56:52;27.80;99.90
14061;DHT22;7105;43.616;1.434;2023-07-20T12:59:17;27.90;99.90
14061;DHT22;7105;43.616;1.434;2023-07-20T13:01:43;27.70;99.90
14061;DHT22;7105;43.616;1.434;2023-07-20T13:04:09;27.90;99.90
14061;DHT22;7105;43.616;1.434;2023-07-20T13:06:36;28.00;99.90
14061;DHT22;7105;43.616;1.434;2023-07-20T13:09:02;27.90;99.90
14061;DHT22;7105;43.616;1.434;2023-07-20T13:11:28;28.00;99.90
14061;DHT22;7105;43.616;1.434;2023-07-20T13:13:54;28.10;99.90
14061;DHT22;7105;43.616;1.434;2023-07-20T13:16:19;27.60;99.90
14061;DHT22;7105;43.616;1.434;2023-07-20T13:18:45;27.40;99.90
14061;DHT22;7105;43.616;1.434;2023-07-20T13:21:11;27.90;99.90
14061;DHT22;7105;43.616;1.434;2023-07-20T13:23:37;28.50;99.90
14061;DHT22;7105;43.616;1.434;2023-07-20T13:26:12;28.40;99.90
14061;DHT22;7105;43.616;1.434;2023-07-20T13:28:38;28.60;99.90
14061;DHT22;7105;43.616;1.434;2023-07-20T13:31:03;28.50;99.90
14061;DHT22;7105;43.616;1.434;2023-07-20T13:33:29;27.90;99.90
14061;DHT22;7105;43.616;1.434;2023-07-20T13:35:55;27.80;99.90
14061;DHT22;7105;43.616;1.434;2023-07-20T13:38:20;28.50;99.90
14061;DHT22;7105;43.616;1.434;2023-07-20T13:40:46;28.70;99.90
14061;DHT22;7105;43.616;1.434;2023-07-20T13:43:12;28.80;99.90
14061;DHT22;7105;43.616;1.434;2023-07-20T13:45:38;29.10;99.90
14061;DHT22;7105;43.616;1.434;2023-07-20T13:48:03;29.00;99.90
14061;DHT22;7105;43.616;1.434;2023-07-20T13:50:29;28.90;99.90
14061;DHT22;7105;43.616;1.434;2023-07-20T13:52:55;28.80;99.90
14061;DHT22;7105;43.616;1.434;2023-07-20T13:55:20;28.50;99.90
14061;DHT22;7105;43.616;1.434;2023-07-20T13:57:47;28.50;99.90
14061;DHT22;7105;43.616;1.434;2023-07-20T14:00:13;28.60;99.90
14061;DHT22;7105;43.616;1.434;2023-07-20T14:02:40;28.80;99.90
14061;DHT22;7105;43.616;1.434;2023-07-20T14:05:06;28.80;99.90
14061;DHT22;7105;43.616;1.434;2023-07-20T14:07:32;28.50;99.90
14061;DHT22;7105;43.616;1.434;2023-07-20T14:09:58;28.50;99.90
14061;DHT22;7105;43.616;1.434;2023-07-20T14:12:24;29.00;99.90
14061;DHT22;7105;43.616;1.434;2023-07-20T14:14:50;29.00;99.90
14061;DHT22;7105;43.616;1.434;2023-07-20T14:17:15;28.70;99.90
14061;DHT22;7105;43.616;1.434;2023-07-20T14:19:41;28.70;99.90
14061;DHT22;7105;43.616;1.434;2023-07-20T14:22:07;28.40;99.90
14061;DHT22;7105;43.616;1.434;2023-07-20T14:24:32;28.60;99.90
14061;DHT22;7105;43.616;1.434;2023-07-20T14:26:58;28.70;99.90
14061;DHT22;7105;43.616;1.434;2023-07-20T14:29:26;28.80;99.90
14061;DHT22;7105;43.616;1.434;2023-07-20T14:31:52;28.60;99.90
14061;DHT22;7105;43.616;1.434;2023-07-20T14:34:18;28.70;99.90
14061;DHT22;7105;43.616;1.434;2023-07-20T14:36:45;28.80;99.90
14061;DHT22;7105;43.616;1.434;2023-07-20T14:39:10;28.50;99.90
14061;DHT22;7105;43.616;1.434;2023-07-20T14:41:36;28.50;99.90
14061;DHT22;7105;43.616;1.434;2023-07-20T14:44:02;28.80;99.90
14061;DHT22;7105;43.616;1.434;2023-07-20T14:46:28;28.80;99.90
14061;DHT22;7105;43.616;1.434;2023-07-20T14:48:53;29.10;99.90
14061;DHT22;7105;43.616;1.434;2023-07-20T14:51:19;29.10;99.90
14061;DHT22;7105;43.616;1.434;2023-07-20T14:53:45;28.60;99.90
14061;DHT22;7105;43.616;1.434;2023-07-20T14:56:10;28.60;99.90
14061;DHT22;7105;43.616;1.434;2023-07-20T14:58:36;28.70;99.90
14061;DHT22;7105;43.616;1.434;2023-07-20T15:01:02;28.80;99.90
14061;DHT22;7105;43.616;1.434;2023-07-20T15:03:29;28.80;99.90
14061;DHT22;7105;43.616;1.434;2023-07-20T15:05:56;29.00;99.90
14061;DHT22;7105;43.616;1.434;2023-07-20T15:08:21;29.20;99.90
14061;DHT22;7105;43.616;1.434;2023-07-20T15:10:48;29.00;99.90
14061;DHT22;7105;43.616;1.434;2023-07-20T15:13:17;28.60;99.90
14061;DHT22;7105;43.616;1.434;2023-07-20T15:15:43;28.50;99.90
14061;DHT22;7105;43.616;1.434;2023-07-20T15:18:09;28.70;99.90
14061;DHT22;7105;43.616;1.434;2023-07-20T15:20:35;28.40;99.90
14061;DHT22;7105;43.616;1.434;2023-07-20T15:23:00;28.50;99.90
14061;DHT22;7105;43.616;1.434;2023-07-20T15:25:26;29.10;99.90
14061;DHT22;7105;43.616;1.434;2023-07-20T15:27:52;29.10;99.90
14061;DHT22;7105;43.616;1.434;2023-07-20T15:30:18;28.90;99.90
14061;DHT22;7105;43.616;1.434;2023-07-20T15:32:44;28.90;99.90
14061;DHT22;7105;43.616;1.434;2023-07-20T15:35:10;28.90;99.90
14061;DHT22;7105;43.616;1.434;2023-07-20T15:37:36;28.80;99.90
14061;DHT22;7105;43.616;1.434;2023-07-20T15:40:02;28.60;99.90
14061;DHT22;7105;43.616;1.434;2023-07-20T15:42:32;28.60;99.90
14061;DHT22;7105;43.616;1.434;2023-07-20T15:44:58;28.80;99.90
14061;DHT22;7105;43.616;1.434;2023-07-20T15:47:23;29.00;99.90
14061;DHT22;7105;43.616;1.434;2023-07-20T15:49:49;28.90;99.90
14061;DHT22;7105;43.616;1.434;2023-07-20T15:52:15;28.80;99.90
14061;DHT22;7105;43.616;1.434;2023-07-20T15:54:42;28.40;99.90
14061;DHT22;7105;43.616;1.434;2023-07-20T15:57:08;28.90;99.90
14061;DHT22;7105;43.616;1.434;2023-07-20T15:59:34;29.20;99.90